createdAt,value
2022-10-23T00:01:45.325Z,93.53
2022-10-23T00:04:13.150Z,92.25
2022-10-23T00:06:37.854Z,91.73
2022-10-23T00:09:01.943Z,90.93
2022-10-23T00:11:29.967Z,91.24
2022-10-23T00:13:57.383Z,91.20
2022-10-23T00:16:20.966Z,91.65
2022-10-23T00:18:45.788Z,92.29
2022-10-23T00:21:12.372Z,91.69
2022-10-23T00:23:36.086Z,91.96
2022-10-23T00:26:00.284Z,92.61
2022-10-23T00:28:25.273Z,93.69
2022-10-23T00:30:48.846Z,92.91
2022-10-23T00:33:12.758Z,93.11
2022-10-23T00:35:36.355Z,93.96
2022-10-23T00:37:59.949Z,94.56
2022-10-23T00:40:24.150Z,96.04
2022-10-23T00:42:47.767Z,97.79
2022-10-23T00:45:22.258Z,99.08
2022-10-23T00:47:46.196Z,97.47
2022-10-23T00:50:10.291Z,97.80
2022-10-23T00:52:35.142Z,96.93
2022-10-23T00:54:59.720Z,98.84
2022-10-23T00:57:23.425Z,99.00
2022-10-23T00:59:46.971Z,99.56
2022-10-23T01:02:12.373Z,100.00
2022-10-23T01:04:37.548Z,100.00
2022-10-23T01:07:07.288Z,100.00
2022-10-23T01:09:36.100Z,100.00
2022-10-23T01:12:08.847Z,100.00
2022-10-23T01:14:41.862Z,100.00
2022-10-23T01:17:13.878Z,100.00
2022-10-23T01:20:02.842Z,100.00
2022-10-23T01:23:01.784Z,99.80
2022-10-23T01:25:39.590Z,98.01
2022-10-23T01:28:12.015Z,97.77
2022-10-23T01:33:17.621Z,99.13
2022-10-23T01:35:50.890Z,99.04
2022-10-23T01:38:19.427Z,99.82
2022-10-23T01:40:50.187Z,99.37
2022-10-23T01:43:21.015Z,99.29
2022-10-23T01:45:50.779Z,98.29
2022-10-23T01:48:20.834Z,98.17
2022-10-23T01:50:46.416Z,98.93
2022-10-23T01:53:10.147Z,98.00
2022-10-23T01:55:34.969Z,98.93
2022-10-23T01:58:02.351Z,99.18
2022-10-23T02:00:34.223Z,97.90
2022-10-23T02:02:59.851Z,98.14
2022-10-23T02:05:31.535Z,97.26
2022-10-23T02:07:56.551Z,97.11
2022-10-23T02:10:21.874Z,97.44
2022-10-23T02:12:53.308Z,97.02
2022-10-23T02:15:26.329Z,96.80
2022-10-23T02:18:04.034Z,96.74
2022-10-23T02:20:37.577Z,96.78
2022-10-23T02:23:11.585Z,96.82
2022-10-23T02:25:39.955Z,96.66
2022-10-23T02:28:08.605Z,96.74
2022-10-23T02:30:43.470Z,95.73
2022-10-23T02:33:11.714Z,96.22
2022-10-23T02:35:35.587Z,95.01
2022-10-23T02:38:32.670Z,95.82
2022-10-23T02:40:59.662Z,94.97
2022-10-23T02:43:30.204Z,94.80
2022-10-23T02:46:02.474Z,95.33
2022-10-23T02:48:36.019Z,94.49
2022-10-23T02:51:10.742Z,93.58
2022-10-23T02:53:44.545Z,93.46
2022-10-23T02:56:17.059Z,94.05
2022-10-23T02:58:49.342Z,94.23
2022-10-23T03:01:18.973Z,93.50
2022-10-23T03:03:51.759Z,93.28
2022-10-23T03:06:16.469Z,92.09
2022-10-23T03:08:45.071Z,91.25
2022-10-23T03:11:08.618Z,90.40
2022-10-23T03:13:32.143Z,90.30
2022-10-23T03:15:55.743Z,90.94
2022-10-23T03:18:19.242Z,90.66
2022-10-23T03:20:47.650Z,91.79
2022-10-23T03:23:14.719Z,91.26
2022-10-23T03:25:39.370Z,91.12
2022-10-23T03:28:03.226Z,90.46
2022-10-23T03:30:31.571Z,90.70
2022-10-23T03:32:55.518Z,90.02
2022-10-23T03:35:19.103Z,89.95
2022-10-23T03:37:44.335Z,89.06
2022-10-23T03:40:10.592Z,89.29
2022-10-23T03:42:34.087Z,88.88
2022-10-23T03:44:57.671Z,88.85
2022-10-23T03:47:21.366Z,89.48
2022-10-23T03:49:44.930Z,88.81
2022-10-23T03:52:09.403Z,89.44
2022-10-23T03:54:34.901Z,92.64
2022-10-23T03:56:58.631Z,89.86
2022-10-23T03:59:23.165Z,89.13
2022-10-23T04:01:47.463Z,89.65
2022-10-23T04:04:12.857Z,89.66
2022-10-23T04:06:40.297Z,89.48
2022-10-23T04:09:04.605Z,88.83
2022-10-23T04:11:30.235Z,90.24
2022-10-23T04:13:53.828Z,89.26
2022-10-23T04:16:17.695Z,88.88
2022-10-23T04:18:42.780Z,89.33
2022-10-23T04:21:07.347Z,89.24
2022-10-23T04:23:31.175Z,89.42
2022-10-23T04:25:58.193Z,88.93
2022-10-23T04:28:24.108Z,88.84
2022-10-23T04:30:47.630Z,88.94
2022-10-23T04:33:11.162Z,89.10
2022-10-23T04:35:34.763Z,89.38
2022-10-23T04:37:58.315Z,89.06
2022-10-23T04:40:21.858Z,89.28
2022-10-23T04:42:46.957Z,89.07
2022-10-23T04:45:12.815Z,89.36
2022-10-23T04:47:38.203Z,89.79
2022-10-23T04:50:02.014Z,89.03
2022-10-23T04:52:44.065Z,88.62
2022-10-23T04:55:27.909Z,89.38
2022-10-23T04:58:24.738Z,89.50
2022-10-23T05:00:50.371Z,89.44
2022-10-23T05:03:22.363Z,89.42
2022-10-23T05:05:46.882Z,89.08
2022-10-23T05:08:39.466Z,90.68
2022-10-23T05:11:19.615Z,89.70
2022-10-23T05:13:45.687Z,89.37
2022-10-23T05:16:10.652Z,90.58
2022-10-23T05:18:40.364Z,90.41
2022-10-23T05:21:14.199Z,90.56
2022-10-23T05:23:39.551Z,90.29
2022-10-23T05:26:03.774Z,90.75
2022-10-23T05:28:28.747Z,90.26
2022-10-23T05:30:52.728Z,90.36
2022-10-23T05:33:22.368Z,90.58
2022-10-23T05:35:46.857Z,90.25
2022-10-23T05:38:14.714Z,90.38
2022-10-23T05:43:12.654Z,90.60
2022-10-23T05:45:45.979Z,90.57
2022-10-23T05:48:35.255Z,91.18
2022-10-23T05:51:23.608Z,91.15
2022-10-23T05:54:08.987Z,91.08
2022-10-23T05:56:42.646Z,90.46
2022-10-23T05:59:20.473Z,90.70
2022-10-23T06:01:46.821Z,90.50
2022-10-23T06:04:16.571Z,90.50
2022-10-23T06:07:02.077Z,90.49
2022-10-23T06:09:25.724Z,90.54
2022-10-23T06:11:53.604Z,90.20
2022-10-23T06:14:19.499Z,90.37
2022-10-23T06:16:44.159Z,90.98
2022-10-23T06:19:11.599Z,90.33
2022-10-23T06:21:40.188Z,90.56
2022-10-23T06:24:07.690Z,90.62
2022-10-23T06:26:39.155Z,90.62
2022-10-23T06:29:08.448Z,91.03
2022-10-23T06:31:32.923Z,91.47
2022-10-23T06:33:56.879Z,91.52
2022-10-23T06:36:20.509Z,92.46
2022-10-23T06:38:46.360Z,91.91
2022-10-23T06:41:16.532Z,91.73
2022-10-23T06:43:42.683Z,92.61
2022-10-23T06:46:26.806Z,93.70
2022-10-23T06:49:08.574Z,94.15
2022-10-23T06:51:42.718Z,94.42
2022-10-23T06:54:12.651Z,95.08
2022-10-23T06:56:44.916Z,94.57
2022-10-23T06:59:08.963Z,94.13
2022-10-23T07:01:33.782Z,94.58
2022-10-23T07:03:57.616Z,94.87
2022-10-23T07:06:23.136Z,95.47
2022-10-23T07:08:47.240Z,95.95
2022-10-23T07:11:30.395Z,95.93
2022-10-23T07:13:55.597Z,97.01
2022-10-23T07:16:21.506Z,97.04
2022-10-23T07:18:46.304Z,97.61
2022-10-23T07:21:24.957Z,96.88
2022-10-23T07:23:51.970Z,97.91
2022-10-23T07:26:17.763Z,98.90
2022-10-23T07:28:44.342Z,99.85
2022-10-23T07:31:08.811Z,98.87
2022-10-23T07:33:53.260Z,98.75
2022-10-23T07:36:18.643Z,98.34
2022-10-23T07:38:42.319Z,99.23
2022-10-23T07:41:08.967Z,99.89
2022-10-23T07:43:35.963Z,99.56
2022-10-23T07:46:01.383Z,99.94
2022-10-23T07:48:31.038Z,100.00
2022-10-23T07:51:01.918Z,99.67
2022-10-23T07:53:27.688Z,100.00
2022-10-23T07:55:58.226Z,100.00
2022-10-23T07:58:25.443Z,100.00
2022-10-23T08:01:06.184Z,100.00
2022-10-23T08:03:34.887Z,100.00
2022-10-23T08:06:00.503Z,100.00
2022-10-23T08:08:25.304Z,100.00
2022-10-23T08:10:54.963Z,98.78
2022-10-23T08:13:24.779Z,97.86
2022-10-23T08:15:54.311Z,97.69
2022-10-23T08:18:37.818Z,96.02
2022-10-23T08:21:05.034Z,94.77
2022-10-23T08:23:30.438Z,92.18
2022-10-23T08:26:00.304Z,91.12
2022-10-23T08:28:26.415Z,90.93
2022-10-23T08:30:52.466Z,88.50
2022-10-23T08:33:16.054Z,86.24
2022-10-23T08:35:42.201Z,84.90
2022-10-23T08:38:06.264Z,84.56
2022-10-23T08:40:37.412Z,82.09
2022-10-23T08:43:26.087Z,84.91
2022-10-23T08:46:08.673Z,81.16
2022-10-23T08:49:22.453Z,81.15
2022-10-23T08:51:56.799Z,80.21
2022-10-23T08:54:24.151Z,78.00
2022-10-23T08:56:53.686Z,76.51
2022-10-23T08:59:26.275Z,75.89
2022-10-23T09:01:57.484Z,74.31
2022-10-23T09:04:21.460Z,74.16
2022-10-23T09:06:56.077Z,74.27
2022-10-23T09:09:39.621Z,73.43
2022-10-23T09:12:09.082Z,73.89
2022-10-23T09:15:10.532Z,73.71
2022-10-23T09:17:38.007Z,73.25
2022-10-23T09:20:15.272Z,71.12
2022-10-23T09:22:41.187Z,70.44
2022-10-23T09:25:05.087Z,69.32
2022-10-23T09:27:28.683Z,70.39
2022-10-23T09:29:54.851Z,69.71
2022-10-23T09:32:19.477Z,70.62
2022-10-23T09:34:54.403Z,68.81
2022-10-23T09:37:26.766Z,65.74
2022-10-23T09:40:03.284Z,66.85
2022-10-23T09:42:27.740Z,66.58
2022-10-23T09:44:54.096Z,68.27
2022-10-23T09:47:21.438Z,65.58
2022-10-23T09:49:51.897Z,64.91
2022-10-23T09:52:27.375Z,65.50
2022-10-23T09:54:56.847Z,65.32
2022-10-23T09:57:28.538Z,61.62
2022-10-23T09:59:53.631Z,61.97
2022-10-23T10:02:28.161Z,61.16
2022-10-23T10:05:25.434Z,59.84
2022-10-23T10:08:00.099Z,61.88
2022-10-23T10:10:25.489Z,60.58
2022-10-23T10:12:53.126Z,60.01
2022-10-23T10:15:26.844Z,61.19
2022-10-23T10:18:04.314Z,58.28
2022-10-23T10:20:50.094Z,60.44
2022-10-23T10:23:24.448Z,59.35
2022-10-23T10:26:00.703Z,61.37
2022-10-23T10:28:35.964Z,60.87
2022-10-23T10:31:11.055Z,59.49
2022-10-23T10:33:44.017Z,60.41
2022-10-23T10:36:23.848Z,58.06
2022-10-23T10:38:52.120Z,59.85
2022-10-23T10:41:43.028Z,57.58
2022-10-23T10:44:46.306Z,58.94
2022-10-23T10:47:21.094Z,58.92
2022-10-23T10:49:57.082Z,60.07
2022-10-23T10:52:48.983Z,57.38
2022-10-23T10:55:20.072Z,58.30
2022-10-23T10:57:49.080Z,58.72
2022-10-23T11:00:17.714Z,58.81
2022-10-23T11:02:47.347Z,60.18
2022-10-23T11:05:28.986Z,60.37
2022-10-23T11:08:00.334Z,60.08
2022-10-23T11:10:24.287Z,62.07
2022-10-23T11:12:50.402Z,60.84
2022-10-23T11:15:16.786Z,63.18
2022-10-23T11:17:45.913Z,61.41
2022-10-23T11:20:26.591Z,61.89
2022-10-23T11:22:58.894Z,63.08
2022-10-23T11:25:55.658Z,64.43
2022-10-23T11:28:39.555Z,64.36
2022-10-23T11:31:19.962Z,64.54
2022-10-23T11:34:27.749Z,63.25
2022-10-23T11:36:54.685Z,62.80
2022-10-23T11:39:23.799Z,64.80
2022-10-23T11:41:53.623Z,65.33
2022-10-23T11:44:45.578Z,64.42
2022-10-23T11:47:38.026Z,63.73
2022-10-23T11:50:25.866Z,64.19
2022-10-23T11:53:13.613Z,64.67
2022-10-23T11:55:42.128Z,63.60
2022-10-23T11:58:31.966Z,63.96
2022-10-23T12:01:05.562Z,63.33
2022-10-23T12:03:40.713Z,64.13
2022-10-23T12:06:07.115Z,63.54
2022-10-23T12:08:37.170Z,64.03
2022-10-23T12:11:00.886Z,64.48
2022-10-23T12:13:45.292Z,64.24
2022-10-23T12:16:10.495Z,65.16
2022-10-23T12:18:34.095Z,64.02
2022-10-23T12:21:00.613Z,64.14
2022-10-23T12:23:45.791Z,65.04
2022-10-23T12:26:42.936Z,64.15
2022-10-23T12:29:25.574Z,65.31
2022-10-23T12:31:59.022Z,64.67
2022-10-23T12:34:36.143Z,65.58
2022-10-23T12:37:42.354Z,64.30
2022-10-23T12:40:10.501Z,63.98
2022-10-23T12:42:34.187Z,64.62
2022-10-23T12:45:02.382Z,65.06
2022-10-23T12:47:27.807Z,66.10
2022-10-23T12:49:52.837Z,65.60
2022-10-23T12:52:18.941Z,66.90
2022-10-23T12:54:42.683Z,65.18
2022-10-23T12:57:22.251Z,64.87
2022-10-23T12:59:46.022Z,67.68
2022-10-23T13:02:23.646Z,64.92
2022-10-23T13:04:50.375Z,65.48
2022-10-23T13:07:14.145Z,65.46
2022-10-23T13:09:42.565Z,66.08
2022-10-23T13:12:24.483Z,64.19
2022-10-23T13:15:03.211Z,65.14
2022-10-23T13:17:37.741Z,65.32
2022-10-23T13:20:23.640Z,65.04
2022-10-23T13:22:50.109Z,65.43
2022-10-23T13:25:26.161Z,63.58
2022-10-23T13:27:49.818Z,64.11
2022-10-23T13:30:30.147Z,67.59
2022-10-23T13:32:53.709Z,66.10
2022-10-23T13:35:24.595Z,66.23
2022-10-23T13:37:48.387Z,67.17
2022-10-23T13:40:25.036Z,66.37
2022-10-23T13:42:50.307Z,65.16
2022-10-23T13:45:21.068Z,65.81
2022-10-23T13:47:45.298Z,65.92
2022-10-23T13:50:11.326Z,65.54
2022-10-23T13:52:36.287Z,65.85
2022-10-23T13:54:59.898Z,65.98
2022-10-23T13:57:23.510Z,65.96
2022-10-23T13:59:47.125Z,66.10
2022-10-23T14:02:21.061Z,66.46
2022-10-23T14:04:44.778Z,66.54
2022-10-23T14:07:08.309Z,67.07
2022-10-23T14:09:33.271Z,66.94
2022-10-23T14:11:56.843Z,66.70
2022-10-23T14:14:20.376Z,67.04
2022-10-23T14:16:43.874Z,66.58
2022-10-23T14:19:07.994Z,66.98
2022-10-23T14:21:31.507Z,66.79
2022-10-23T14:23:55.614Z,67.91
2022-10-23T14:26:23.872Z,68.16
2022-10-23T14:28:47.549Z,67.85
2022-10-23T14:31:13.885Z,67.80
2022-10-23T14:33:37.547Z,68.41
2022-10-23T14:36:01.281Z,70.92
2022-10-23T14:38:25.051Z,69.15
2022-10-23T14:40:48.609Z,68.65
2022-10-23T14:43:13.568Z,70.09
2022-10-23T14:45:37.537Z,69.41
2022-10-23T14:48:02.592Z,69.08
2022-10-23T14:50:26.114Z,69.10
2022-10-23T14:52:49.745Z,69.59
2022-10-23T14:55:13.307Z,69.59
2022-10-23T14:57:37.559Z,70.41
2022-10-23T15:00:02.481Z,69.93
2022-10-23T15:02:26.078Z,70.65
2022-10-23T15:04:49.589Z,69.88
2022-10-23T15:07:13.174Z,71.31
2022-10-23T15:09:36.724Z,71.61
2022-10-23T15:12:00.387Z,70.96
2022-10-23T15:14:23.879Z,71.06
2022-10-23T15:16:48.831Z,71.16
2022-10-23T15:19:18.431Z,71.34
2022-10-23T15:21:42.503Z,71.47
2022-10-23T15:24:06.615Z,71.54
2022-10-23T15:26:30.266Z,71.80
2022-10-23T15:28:56.403Z,71.87
2022-10-23T15:31:46.427Z,72.48
2022-10-23T15:34:14.120Z,71.89
2022-10-23T15:36:37.803Z,72.96
2022-10-23T15:39:02.166Z,73.90
2022-10-23T15:41:30.974Z,73.89
2022-10-23T15:43:54.579Z,73.38
2022-10-23T15:46:18.080Z,73.12
2022-10-23T15:48:42.693Z,73.44
2022-10-23T15:51:07.866Z,73.46
2022-10-23T15:53:31.551Z,73.75
2022-10-23T15:55:55.930Z,74.29
2022-10-23T15:58:19.490Z,75.14
2022-10-23T16:00:43.023Z,74.53
2022-10-23T16:03:06.671Z,74.56
2022-10-23T16:05:30.201Z,75.86
2022-10-23T16:07:55.187Z,75.80
2022-10-23T16:10:18.960Z,75.38
2022-10-23T16:12:42.890Z,75.48
2022-10-23T16:15:09.181Z,76.88
2022-10-23T16:17:32.765Z,76.80
2022-10-23T16:19:56.319Z,76.75
2022-10-23T16:22:19.887Z,77.23
2022-10-23T16:24:44.943Z,76.98
2022-10-23T16:27:08.898Z,77.86
2022-10-23T16:29:32.463Z,78.06
2022-10-23T16:31:57.561Z,78.15
2022-10-23T16:34:21.404Z,78.00
2022-10-23T16:36:45.161Z,79.30
2022-10-23T16:39:39.201Z,78.99
2022-10-23T16:42:40.480Z,78.35
2022-10-23T16:45:12.006Z,79.25
2022-10-23T16:47:36.312Z,78.85
2022-10-23T16:50:00.631Z,78.42
2022-10-23T16:52:24.362Z,78.02
2022-10-23T16:54:47.909Z,80.15
2022-10-23T16:57:11.497Z,79.45
2022-10-23T16:59:37.049Z,79.12
2022-10-23T17:02:00.706Z,79.57
2022-10-23T17:04:24.340Z,79.27
2022-10-23T17:06:47.942Z,79.41
2022-10-23T17:09:11.450Z,80.69
2022-10-23T17:11:38.163Z,81.64
2022-10-23T17:14:04.932Z,81.83
2022-10-23T17:16:34.499Z,82.43
2022-10-23T17:18:58.731Z,82.34
2022-10-23T17:21:23.532Z,81.76
2022-10-23T17:23:47.475Z,82.98
2022-10-23T17:26:14.894Z,82.49
2022-10-23T17:28:41.640Z,81.89
2022-10-23T17:31:05.274Z,81.85
2022-10-23T17:33:30.259Z,81.89
2022-10-23T17:35:54.568Z,81.50
2022-10-23T17:38:19.182Z,81.77
2022-10-23T17:40:42.793Z,81.48
2022-10-23T17:43:06.385Z,82.12
2022-10-23T17:45:30.034Z,82.50
2022-10-23T17:47:53.697Z,82.07
2022-10-23T17:50:19.557Z,81.58
2022-10-23T17:52:43.478Z,81.85
2022-10-23T17:55:08.918Z,81.30
2022-10-23T17:57:32.560Z,80.42
2022-10-23T17:59:56.142Z,80.84
2022-10-23T18:02:19.849Z,81.21
2022-10-23T18:04:43.563Z,80.97
2022-10-23T18:07:08.567Z,80.94
2022-10-23T18:09:32.082Z,80.55
2022-10-23T18:11:55.636Z,79.38
2022-10-23T18:14:20.450Z,80.70
2022-10-23T18:16:45.862Z,79.82
2022-10-23T18:19:10.086Z,81.19
2022-10-23T18:21:34.823Z,80.27
2022-10-23T18:24:02.128Z,79.61
2022-10-23T18:26:28.645Z,80.95
2022-10-23T18:28:55.605Z,80.27
2022-10-23T18:31:21.244Z,80.22
2022-10-23T18:33:45.137Z,81.01
2022-10-23T18:36:16.122Z,80.16
2022-10-23T18:38:40.179Z,80.80
2022-10-23T18:41:05.087Z,80.46
2022-10-23T18:43:42.556Z,80.48
2022-10-23T18:46:07.961Z,79.32
2022-10-23T18:48:31.713Z,78.96
2022-10-23T18:50:55.287Z,79.69
2022-10-23T18:53:18.856Z,79.44
2022-10-23T18:55:49.246Z,79.58
2022-10-23T18:58:14.443Z,79.21
2022-10-23T19:00:38.018Z,79.44
2022-10-23T19:03:01.602Z,79.07
2022-10-23T19:05:25.119Z,79.55
2022-10-23T19:07:50.341Z,79.85
2022-10-23T19:10:17.966Z,78.87
2022-10-23T19:12:41.835Z,79.24
2022-10-23T19:15:08.271Z,78.91
2022-10-23T19:17:34.216Z,78.65
2022-10-23T19:20:02.509Z,79.03
2022-10-23T19:22:26.079Z,78.80
2022-10-23T19:24:53.680Z,78.29
2022-10-23T19:27:17.247Z,78.32
2022-10-23T19:29:44.762Z,78.27
2022-10-23T19:32:10.346Z,79.04
2022-10-23T19:34:34.131Z,78.67
2022-10-23T19:36:57.791Z,78.85
2022-10-23T19:39:21.307Z,78.58
2022-10-23T19:41:44.966Z,78.37
2022-10-23T19:44:08.531Z,78.03
2022-10-23T19:46:32.144Z,78.70
2022-10-23T19:48:57.099Z,78.16
2022-10-23T19:51:20.762Z,78.12
2022-10-23T19:53:44.364Z,77.95
2022-10-23T19:56:10.072Z,79.49
2022-10-23T19:58:33.839Z,78.84
2022-10-23T20:00:57.703Z,78.11
2022-10-23T20:03:21.281Z,78.37
2022-10-23T20:05:47.455Z,78.46
2022-10-23T20:08:11.847Z,78.03
2022-10-23T20:10:35.410Z,77.93
2022-10-23T20:13:18.194Z,77.68
2022-10-23T20:15:42.801Z,78.20
2022-10-23T20:18:06.996Z,77.98
2022-10-23T20:20:30.615Z,77.80
2022-10-23T20:22:56.100Z,78.32
2022-10-23T20:25:20.131Z,77.34
2022-10-23T20:27:43.641Z,78.12
2022-10-23T20:30:08.735Z,77.34
2022-10-23T20:32:32.300Z,77.76
2022-10-23T20:34:56.023Z,77.37
2022-10-23T20:37:19.574Z,78.04
2022-10-23T20:39:44.558Z,77.79
2022-10-23T20:42:08.619Z,78.34
2022-10-23T20:44:32.670Z,79.49
2022-10-23T20:46:56.863Z,78.99
2022-10-23T20:49:21.086Z,77.49
2022-10-23T20:51:45.223Z,78.18
2022-10-23T20:54:08.878Z,78.76
2022-10-23T20:56:36.122Z,78.25
2022-10-23T20:59:00.624Z,78.59
2022-10-23T21:01:26.339Z,77.78
2022-10-23T21:03:52.198Z,78.97
2022-10-23T21:06:18.159Z,78.43
2022-10-23T21:08:42.758Z,78.78
2022-10-23T21:11:08.026Z,78.31
2022-10-23T21:13:33.341Z,77.71
2022-10-23T21:15:57.237Z,79.01
2022-10-23T21:18:34.123Z,80.06
2022-10-23T21:21:05.632Z,79.68
2022-10-23T21:23:30.771Z,80.03
2022-10-23T21:25:54.317Z,80.26
2022-10-23T21:28:17.800Z,80.68
2022-10-23T21:30:42.727Z,79.32
2022-10-23T21:33:07.019Z,79.79
2022-10-23T21:35:30.903Z,80.13
2022-10-23T21:37:54.419Z,79.65
2022-10-23T21:40:18.247Z,80.69
2022-10-23T21:42:41.755Z,80.11
2022-10-23T21:45:06.540Z,80.74
2022-10-23T21:47:31.481Z,81.24
2022-10-23T21:49:55.054Z,81.60
2022-10-23T21:52:19.802Z,81.87
2022-10-23T21:54:43.571Z,82.22
2022-10-23T21:57:13.829Z,82.85
2022-10-23T21:59:37.457Z,81.88
2022-10-23T22:02:01.298Z,81.73
2022-10-23T22:04:26.333Z,82.95
2022-10-23T22:06:51.076Z,82.83
2022-10-23T22:09:18.931Z,82.48
2022-10-23T22:11:43.055Z,82.33
2022-10-23T22:14:06.671Z,82.41
2022-10-23T22:16:30.389Z,81.50
2022-10-23T22:18:54.386Z,81.97
2022-10-23T22:21:22.501Z,81.51
2022-10-23T22:23:49.200Z,82.20
2022-10-23T22:26:23.893Z,82.58
2022-10-23T22:28:47.455Z,82.63
2022-10-23T22:31:16.582Z,81.25
2022-10-23T22:33:40.175Z,82.24
2022-10-23T22:36:04.876Z,81.18
2022-10-23T22:38:31.943Z,81.00
2022-10-23T22:40:55.481Z,81.15
2022-10-23T22:43:19.084Z,80.65
2022-10-23T22:45:42.704Z,81.67
2022-10-23T22:48:08.448Z,81.71
2022-10-23T22:50:31.970Z,82.29
2022-10-23T22:52:55.521Z,82.14
2022-10-23T22:55:20.457Z,82.09
2022-10-23T22:57:44.260Z,83.05
2022-10-23T23:00:09.747Z,85.12
2022-10-23T23:02:33.291Z,85.27
2022-10-23T23:04:56.820Z,86.44
2022-10-23T23:07:20.441Z,87.39
2022-10-23T23:09:46.286Z,88.55
2022-10-23T23:12:14.820Z,88.69
2022-10-23T23:14:38.754Z,89.39
2022-10-23T23:17:02.411Z,89.32
2022-10-23T23:19:26.692Z,90.17
2022-10-23T23:21:50.325Z,92.66
2022-10-23T23:24:13.890Z,93.70
2022-10-23T23:26:37.487Z,93.14
2022-10-23T23:29:02.486Z,95.51
2022-10-23T23:31:27.630Z,95.98
2022-10-23T23:33:51.683Z,94.58
2022-10-23T23:36:19.359Z,94.24
2022-10-23T23:38:42.850Z,92.72
2022-10-23T23:41:07.823Z,91.85
2022-10-23T23:43:31.589Z,92.56
2022-10-23T23:45:56.607Z,92.43
2022-10-23T23:48:20.114Z,91.40
2022-10-23T23:50:43.755Z,92.27
2022-10-23T23:53:07.292Z,94.08
2022-10-23T23:55:30.940Z,91.05
2022-10-23T23:57:54.503Z,94.45
